sensor_id;sensor_type;location;lat;lon;timestamp;pressure;altitude;pressure_sealevel;temperature;humidity
13800;BME280;6971;50.028;9.258;2023-09-07T00:03:44;99840.16;;;12.90;100.00
13800;BME280;6971;50.028;9.258;2023-09-07T00:08:44;99852.44;;;12.91;100.00
13800;BME280;6971;50.028;9.258;2023-09-07T00:13:45;99850.59;;;12.77;100.00
13800;BME280;6971;50.028;9.258;2023-09-07T00:18:46;99854.19;;;12.76;100.00
13800;BME280;6971;50.028;9.258;2023-09-07T00:23:46;99848.81;;;12.78;100.00
13800;BME280;6971;50.028;9.258;2023-09-07T00:28:46;99843.09;;;12.70;100.00
13800;BME280;6971;50.028;9.258;2023-09-07T00:33:47;99839.06;;;12.62;100.00
13800;BME280;6971;50.028;9.258;2023-09-07T00:38:47;99841.13;;;12.57;100.00
13800;BME280;6971;50.028;9.258;2023-09-07T00:43:47;99836.59;;;12.59;100.00
13800;BME280;6971;50.028;9.258;2023-09-07T00:48:49;99832.94;;;12.46;100.00
13800;BME280;6971;50.028;9.258;2023-09-07T00:53:50;99832.59;;;12.52;100.00
13800;BME280;6971;50.028;9.258;2023-09-07T00:58:51;99820.66;;;12.45;100.00
13800;BME280;6971;50.028;9.258;2023-09-07T01:03:52;99821.94;;;12.37;100.00
13800;BME280;6971;50.028;9.258;2023-09-07T01:08:55;99818.69;;;12.32;100.00
13800;BME280;6971;50.028;9.258;2023-09-07T01:13:59;99822.13;;;12.34;100.00
13800;BME280;6971;50.028;9.258;2023-09-07T01:19:00;99815.63;;;12.24;100.00
13800;BME280;6971;50.028;9.258;2023-09-07T01:24:03;99816.47;;;12.24;100.00
13800;BME280;6971;50.028;9.258;2023-09-07T01:29:05;99809.13;;;12.13;100.00
13800;BME280;6971;50.028;9.258;2023-09-07T01:34:06;99800.78;;;12.21;100.00
13800;BME280;6971;50.028;9.258;2023-09-07T01:39:08;99795.41;;;12.23;100.00
13800;BME280;6971;50.028;9.258;2023-09-07T01:44:09;99787.34;;;12.26;100.00
13800;BME280;6971;50.028;9.258;2023-09-07T01:49:09;99793.72;;;12.22;100.00
13800;BME280;6971;50.028;9.258;2023-09-07T01:54:09;99789.53;;;12.18;100.00
13800;BME280;6971;50.028;9.258;2023-09-07T01:59:10;99794.03;;;12.16;100.00
13800;BME280;6971;50.028;9.258;2023-09-07T02:04:11;99789.69;;;12.14;100.00
13800;BME280;6971;50.028;9.258;2023-09-07T02:09:11;99788.50;;;12.20;100.00
13800;BME280;6971;50.028;9.258;2023-09-07T02:14:11;99795.94;;;12.30;100.00
13800;BME280;6971;50.028;9.258;2023-09-07T02:19:12;99800.63;;;12.24;100.00
13800;BME280;6971;50.028;9.258;2023-09-07T02:24:12;99801.50;;;12.25;100.00
13800;BME280;6971;50.028;9.258;2023-09-07T02:29:12;99801.81;;;12.35;100.00
13800;BME280;6971;50.028;9.258;2023-09-07T02:34:13;99796.53;;;12.35;100.00
13800;BME280;6971;50.028;9.258;2023-09-07T02:39:13;99798.34;;;12.34;100.00
13800;BME280;6971;50.028;9.258;2023-09-07T02:44:13;99793.78;;;12.36;100.00
13800;BME280;6971;50.028;9.258;2023-09-07T02:49:14;99798.13;;;12.37;100.00
13800;BME280;6971;50.028;9.258;2023-09-07T02:54:14;99796.94;;;12.43;100.00
13800;BME280;6971;50.028;9.258;2023-09-07T02:59:15;99794.38;;;12.42;100.00
13800;BME280;6971;50.028;9.258;2023-09-07T03:04:15;99775.88;;;12.42;100.00
13800;BME280;6971;50.028;9.258;2023-09-07T03:09:16;99784.25;;;12.50;100.00
13800;BME280;6971;50.028;9.258;2023-09-07T03:14:16;99784.25;;;12.50;100.00
13800;BME280;6971;50.028;9.258;2023-09-07T03:19:16;99780.47;;;12.54;100.00
13800;BME280;6971;50.028;9.258;2023-09-07T03:24:17;99787.13;;;12.61;100.00
13800;BME280;6971;50.028;9.258;2023-09-07T03:29:17;99784.50;;;12.61;100.00
13800;BME280;6971;50.028;9.258;2023-09-07T03:34:17;99793.00;;;12.66;100.00
13800;BME280;6971;50.028;9.258;2023-09-07T03:39:19;99793.88;;;12.67;100.00
13800;BME280;6971;50.028;9.258;2023-09-07T03:44:22;99795.50;;;12.70;100.00
13800;BME280;6971;50.028;9.258;2023-09-07T03:49:22;99803.16;;;12.74;100.00
13800;BME280;6971;50.028;9.258;2023-09-07T03:54:23;99797.03;;;12.74;100.00
13800;BME280;6971;50.028;9.258;2023-09-07T03:59:23;99805.63;;;12.77;100.00
13800;BME280;6971;50.028;9.258;2023-09-07T04:04:23;99804.00;;;12.75;100.00
13800;BME280;6971;50.028;9.258;2023-09-07T04:09:24;99812.38;;;12.83;100.00
13800;BME280;6971;50.028;9.258;2023-09-07T04:14:24;99807.41;;;12.77;100.00
13800;BME280;6971;50.028;9.258;2023-09-07T04:19:24;99814.22;;;12.81;100.00
13800;BME280;6971;50.028;9.258;2023-09-07T04:24:25;99809.50;;;12.86;100.00
13800;BME280;6971;50.028;9.258;2023-09-07T04:29:28;99817.66;;;12.83;100.00
13800;BME280;6971;50.028;9.258;2023-09-07T04:34:28;99814.22;;;12.81;100.00
13800;BME280;6971;50.028;9.258;2023-09-07T04:39:28;99815.66;;;12.87;100.00
13800;BME280;6971;50.028;9.258;2023-09-07T04:44:29;99817.66;;;12.83;100.00
13800;BME280;6971;50.028;9.258;2023-09-07T04:49:29;99827.03;;;12.89;100.00
13800;BME280;6971;50.028;9.258;2023-09-07T04:54:29;99827.69;;;12.92;100.00
13800;BME280;6971;50.028;9.258;2023-09-07T04:59:30;99834.19;;;12.87;100.00
13800;BME280;6971;50.028;9.258;2023-09-07T05:04:30;99835.88;;;12.88;100.00
13800;BME280;6971;50.028;9.258;2023-09-07T05:09:30;99837.34;;;12.93;100.00
13800;BME280;6971;50.028;9.258;2023-09-07T05:14:31;99839.03;;;12.95;100.00
13800;BME280;6971;50.028;9.258;2023-09-07T05:19:31;99844.16;;;12.98;100.00
13800;BME280;6971;50.028;9.258;2023-09-07T05:24:32;99843.03;;;13.02;100.00
13800;BME280;6971;50.028;9.258;2023-09-07T05:29:32;99854.47;;;13.02;100.00
13800;BME280;6971;50.028;9.258;2023-09-07T05:34:32;99859.31;;;13.10;100.00
13800;BME280;6971;50.028;9.258;2023-09-07T05:39:33;99853.25;;;13.08;100.00
13800;BME280;6971;50.028;9.258;2023-09-07T05:44:33;99861.81;;;13.13;100.00
13800;BME280;6971;50.028;9.258;2023-09-07T05:49:33;99863.78;;;13.24;100.00
13800;BME280;6971;50.028;9.258;2023-09-07T05:54:34;99865.78;;;13.21;100.00
13800;BME280;6971;50.028;9.258;2023-09-07T05:59:34;99865.03;;;13.18;100.00
13800;BME280;6971;50.028;9.258;2023-09-07T06:04:35;99868.44;;;13.21;100.00
13800;BME280;6971;50.028;9.258;2023-09-07T06:09:35;99869.09;;;13.24;100.00
13800;BME280;6971;50.028;9.258;2023-09-07T06:14:35;99867.41;;;13.23;100.00
13800;BME280;6971;50.028;9.258;2023-09-07T06:19:36;99866.56;;;13.23;100.00
13800;BME280;6971;50.028;9.258;2023-09-07T06:24:36;99862.69;;;13.28;100.00
13800;BME280;6971;50.028;9.258;2023-09-07T06:29:36;99867.06;;;13.29;100.00
13800;BME280;6971;50.028;9.258;2023-09-07T06:34:37;99860.72;;;13.32;100.00
13800;BME280;6971;50.028;9.258;2023-09-07T06:39:37;99866.03;;;13.32;100.00
13800;BME280;6971;50.028;9.258;2023-09-07T06:44:38;99871.19;;;13.50;100.00
13800;BME280;6971;50.028;9.258;2023-09-07T06:49:38;99869.53;;;13.63;100.00
13800;BME280;6971;50.028;9.258;2023-09-07T06:54:38;99869.91;;;13.72;100.00
13800;BME280;6971;50.028;9.258;2023-09-07T06:59:39;99871.31;;;13.77;100.00
13800;BME280;6971;50.028;9.258;2023-09-07T07:04:39;99866.91;;;14.07;100.00
13800;BME280;6971;50.028;9.258;2023-09-07T07:09:39;99868.03;;;14.17;100.00
13800;BME280;6971;50.028;9.258;2023-09-07T07:14:40;99868.97;;;14.31;100.00
13800;BME280;6971;50.028;9.258;2023-09-07T07:19:40;99870.69;;;14.46;100.00
13800;BME280;6971;50.028;9.258;2023-09-07T07:24:43;99877.03;;;14.71;100.00
13800;BME280;6971;50.028;9.258;2023-09-07T07:29:43;99872.69;;;14.85;100.00
13800;BME280;6971;50.028;9.258;2023-09-07T07:34:44;99874.88;;;15.06;100.00
13800;BME280;6971;50.028;9.258;2023-09-07T07:39:45;99870.81;;;15.27;100.00
13800;BME280;6971;50.028;9.258;2023-09-07T07:44:45;99878.31;;;15.61;100.00
13800;BME280;6971;50.028;9.258;2023-09-07T07:49:45;99880.31;;;15.84;100.00
13800;BME280;6971;50.028;9.258;2023-09-07T07:54:46;99885.59;;;16.62;100.00
13800;BME280;6971;50.028;9.258;2023-09-07T07:59:46;99885.72;;;17.33;100.00
13800;BME280;6971;50.028;9.258;2023-09-07T08:04:46;99878.16;;;17.16;100.00
13800;BME280;6971;50.028;9.258;2023-09-07T08:09:47;99872.91;;;17.39;100.00
13800;BME280;6971;50.028;9.258;2023-09-07T08:14:47;99864.22;;;17.48;100.00
13800;BME280;6971;50.028;9.258;2023-09-07T08:19:48;99868.59;;;18.31;100.00
13800;BME280;6971;50.028;9.258;2023-09-07T08:24:48;99879.47;;;19.06;100.00
13800;BME280;6971;50.028;9.258;2023-09-07T08:29:50;99874.44;;;19.88;100.00
13800;BME280;6971;50.028;9.258;2023-09-07T08:34:51;99867.88;;;21.54;97.36
13800;BME280;6971;50.028;9.258;2023-09-07T08:39:56;99886.28;;;22.72;90.29
13800;BME280;6971;50.028;9.258;2023-09-07T08:45:00;99890.22;;;23.51;83.33
13800;BME280;6971;50.028;9.258;2023-09-07T08:50:06;99897.63;;;23.75;79.47
13800;BME280;6971;50.028;9.258;2023-09-07T08:55:08;99897.53;;;24.11;73.01
13800;BME280;6971;50.028;9.258;2023-09-07T09:00:09;99900.72;;;24.93;72.06
13800;BME280;6971;50.028;9.258;2023-09-07T09:05:18;99907.66;;;25.46;68.79
13800;BME280;6971;50.028;9.258;2023-09-07T09:10:19;99903.25;;;24.95;70.18
13800;BME280;6971;50.028;9.258;2023-09-07T09:15:22;99907.81;;;25.19;68.04
13800;BME280;6971;50.028;9.258;2023-09-07T09:20:25;99909.31;;;25.55;67.65
13800;BME280;6971;50.028;9.258;2023-09-07T09:25:29;99917.06;;;26.00;62.24
13800;BME280;6971;50.028;9.258;2023-09-07T09:30:29;99913.44;;;26.24;61.26
13800;BME280;6971;50.028;9.258;2023-09-07T09:35:30;99907.56;;;26.20;60.14
13800;BME280;6971;50.028;9.258;2023-09-07T09:40:34;99903.53;;;26.88;55.40
13800;BME280;6971;50.028;9.258;2023-09-07T09:45:39;99907.94;;;26.89;57.13
13800;BME280;6971;50.028;9.258;2023-09-07T09:50:40;99903.91;;;26.85;55.05
13800;BME280;6971;50.028;9.258;2023-09-07T09:55:40;99907.41;;;27.64;53.28
13800;BME280;6971;50.028;9.258;2023-09-07T10:00:45;99897.81;;;27.38;54.00
13800;BME280;6971;50.028;9.258;2023-09-07T10:05:46;99891.03;;;27.96;51.70
13800;BME280;6971;50.028;9.258;2023-09-07T10:10:47;99879.25;;;26.80;53.48
13800;BME280;6971;50.028;9.258;2023-09-07T10:15:47;99879.78;;;27.30;52.03
13800;BME280;6971;50.028;9.258;2023-09-07T10:20:53;99868.94;;;27.30;52.92
13800;BME280;6971;50.028;9.258;2023-09-07T10:25:56;99867.59;;;27.88;52.38
13800;BME280;6971;50.028;9.258;2023-09-07T10:31:07;99852.66;;;28.22;52.60
13800;BME280;6971;50.028;9.258;2023-09-07T10:36:26;99862.53;;;27.85;52.83
13800;BME280;6971;50.028;9.258;2023-09-07T10:41:27;99857.38;;;28.50;50.22
13800;BME280;6971;50.028;9.258;2023-09-07T10:46:27;99862.19;;;28.18;51.71
13800;BME280;6971;50.028;9.258;2023-09-07T10:51:28;99861.59;;;28.08;50.63
13800;BME280;6971;50.028;9.258;2023-09-07T10:56:29;99852.28;;;28.62;51.17
13800;BME280;6971;50.028;9.258;2023-09-07T11:01:30;99856.97;;;28.90;49.83
13800;BME280;6971;50.028;9.258;2023-09-07T11:06:31;99842.63;;;28.75;49.07
13800;BME280;6971;50.028;9.258;2023-09-07T11:11:32;99840.34;;;28.93;49.06
13800;BME280;6971;50.028;9.258;2023-09-07T11:16:34;99827.34;;;29.39;46.29
13800;BME280;6971;50.028;9.258;2023-09-07T11:21:35;99823.00;;;28.51;48.45
13800;BME280;6971;50.028;9.258;2023-09-07T11:26:43;99826.59;;;29.74;47.71
13800;BME280;6971;50.028;9.258;2023-09-07T11:31:44;99828.78;;;29.99;44.47
13800;BME280;6971;50.028;9.258;2023-09-07T11:36:46;99825.69;;;29.38;47.38
13800;BME280;6971;50.028;9.258;2023-09-07T11:41:46;99823.19;;;30.07;45.97
13800;BME280;6971;50.028;9.258;2023-09-07T11:46:47;99831.59;;;30.13;44.13
13800;BME280;6971;50.028;9.258;2023-09-07T11:51:47;99822.31;;;29.93;45.30
13800;BME280;6971;50.028;9.258;2023-09-07T11:56:48;99819.59;;;29.93;43.81
13800;BME280;6971;50.028;9.258;2023-09-07T12:01:48;99814.22;;;30.07;45.35
13800;BME280;6971;50.028;9.258;2023-09-07T12:06:48;99813.28;;;30.28;42.80
13800;BME280;6971;50.028;9.258;2023-09-07T12:11:49;99815.47;;;30.04;43.35
13800;BME280;6971;50.028;9.258;2023-09-07T12:16:49;99807.88;;;29.57;43.16
13800;BME280;6971;50.028;9.258;2023-09-07T12:21:51;99809.28;;;29.82;44.03
13800;BME280;6971;50.028;9.258;2023-09-07T12:26:51;99799.31;;;29.96;42.65
13800;BME280;6971;50.028;9.258;2023-09-07T12:31:52;99791.28;;;29.74;42.72
13800;BME280;6971;50.028;9.258;2023-09-07T12:36:52;99794.88;;;30.30;43.09
13800;BME280;6971;50.028;9.258;2023-09-07T12:41:52;99793.78;;;29.40;41.82
13800;BME280;6971;50.028;9.258;2023-09-07T12:46:53;99801.41;;;30.01;42.70
13800;BME280;6971;50.028;9.258;2023-09-07T12:51:53;99788.75;;;29.73;43.54
13800;BME280;6971;50.028;9.258;2023-09-07T12:56:53;99784.88;;;30.38;42.30
13800;BME280;6971;50.028;9.258;2023-09-07T13:01:54;99785.81;;;30.79;40.99
13800;BME280;6971;50.028;9.258;2023-09-07T13:06:56;99781.06;;;29.83;42.15
13800;BME280;6971;50.028;9.258;2023-09-07T13:11:56;99779.16;;;29.70;40.86
13800;BME280;6971;50.028;9.258;2023-09-07T13:16:56;99782.41;;;29.58;41.94
13800;BME280;6971;50.028;9.258;2023-09-07T13:22:03;99774.91;;;29.61;41.73
13800;BME280;6971;50.028;9.258;2023-09-07T13:27:04;99767.66;;;29.75;41.30
13800;BME280;6971;50.028;9.258;2023-09-07T13:32:05;99765.72;;;29.62;41.75
13800;BME280;6971;50.028;9.258;2023-09-07T13:37:05;99750.72;;;29.37;42.20
13800;BME280;6971;50.028;9.258;2023-09-07T13:42:05;99748.91;;;29.44;41.96
13800;BME280;6971;50.028;9.258;2023-09-07T13:47:06;99742.97;;;29.34;40.79
13800;BME280;6971;50.028;9.258;2023-09-07T13:52:08;99752.31;;;28.96;40.25
13800;BME280;6971;50.028;9.258;2023-09-07T13:57:08;99745.59;;;28.92;41.54
13800;BME280;6971;50.028;9.258;2023-09-07T14:02:09;99743.66;;;29.08;41.42
13800;BME280;6971;50.028;9.258;2023-09-07T14:07:09;99738.19;;;29.01;40.91
13800;BME280;6971;50.028;9.258;2023-09-07T14:12:09;99744.53;;;29.15;41.32
13800;BME280;6971;50.028;9.258;2023-09-07T14:17:10;99736.09;;;28.81;42.18
13800;BME280;6971;50.028;9.258;2023-09-07T14:22:11;99733.03;;;29.13;41.54
13800;BME280;6971;50.028;9.258;2023-09-07T14:27:11;99729.19;;;29.00;41.11
13800;BME280;6971;50.028;9.258;2023-09-07T14:32:11;99736.38;;;28.86;41.40
13800;BME280;6971;50.028;9.258;2023-09-07T14:37:12;99724.56;;;28.94;41.56
13800;BME280;6971;50.028;9.258;2023-09-07T14:42:13;99715.25;;;29.03;41.02
13800;BME280;6971;50.028;9.258;2023-09-07T14:47:16;99714.41;;;29.03;40.89
13800;BME280;6971;50.028;9.258;2023-09-07T14:52:17;99721.56;;;29.11;41.40
13800;BME280;6971;50.028;9.258;2023-09-07T14:57:18;99709.97;;;28.95;41.52
13800;BME280;6971;50.028;9.258;2023-09-07T15:02:18;99711.56;;;29.18;41.36
13800;BME280;6971;50.028;9.258;2023-09-07T15:07:18;99706.06;;;29.04;40.71
13800;BME280;6971;50.028;9.258;2023-09-07T15:12:20;99704.13;;;28.70;41.85
13800;BME280;6971;50.028;9.258;2023-09-07T15:17:20;99693.22;;;28.63;41.96
13800;BME280;6971;50.028;9.258;2023-09-07T15:22:20;99693.72;;;28.73;42.76
13800;BME280;6971;50.028;9.258;2023-09-07T15:27:21;99695.25;;;28.61;42.10
13800;BME280;6971;50.028;9.258;2023-09-07T15:32:21;99688.44;;;28.43;41.88
13800;BME280;6971;50.028;9.258;2023-09-07T15:37:21;99691.50;;;27.96;46.31
13800;BME280;6971;50.028;9.258;2023-09-07T15:42:22;99680.75;;;28.25;43.91
13800;BME280;6971;50.028;9.258;2023-09-07T15:47:22;99686.00;;;28.26;50.65
13800;BME280;6971;50.028;9.258;2023-09-07T15:52:23;99676.97;;;27.67;52.41
13800;BME280;6971;50.028;9.258;2023-09-07T15:57:24;99671.94;;;27.64;55.54
13800;BME280;6971;50.028;9.258;2023-09-07T16:02:25;99672.78;;;27.19;57.13
13800;BME280;6971;50.028;9.258;2023-09-07T16:07:25;99667.19;;;27.06;58.31
13800;BME280;6971;50.028;9.258;2023-09-07T16:12:26;99671.94;;;26.65;63.76
13800;BME280;6971;50.028;9.258;2023-09-07T16:17:26;99675.47;;;26.19;65.91
13800;BME280;6971;50.028;9.258;2023-09-07T16:22:27;99664.25;;;25.75;68.02
13800;BME280;6971;50.028;9.258;2023-09-07T16:27:27;99665.59;;;25.39;71.52
13800;BME280;6971;50.028;9.258;2023-09-07T16:32:27;99662.97;;;25.06;75.84
13800;BME280;6971;50.028;9.258;2023-09-07T16:37:28;99663.03;;;24.73;80.09
13800;BME280;6971;50.028;9.258;2023-09-07T16:42:28;99659.16;;;24.50;83.34
13800;BME280;6971;50.028;9.258;2023-09-07T16:47:29;99656.03;;;23.87;87.38
13800;BME280;6971;50.028;9.258;2023-09-07T16:52:29;99655.78;;;23.64;90.34
13800;BME280;6971;50.028;9.258;2023-09-07T16:57:32;99658.13;;;23.24;97.36
13800;BME280;6971;50.028;9.258;2023-09-07T17:02:34;99650.59;;;22.74;100.00
13800;BME280;6971;50.028;9.258;2023-09-07T17:07:35;99654.84;;;22.59;100.00
13800;BME280;6971;50.028;9.258;2023-09-07T17:12:35;99652.06;;;22.14;100.00
13800;BME280;6971;50.028;9.258;2023-09-07T17:17:35;99656.91;;;21.92;100.00
13800;BME280;6971;50.028;9.258;2023-09-07T17:22:36;99650.25;;;21.58;100.00
13800;BME280;6971;50.028;9.258;2023-09-07T17:27:36;99655.59;;;21.40;100.00
13800;BME280;6971;50.028;9.258;2023-09-07T17:32:37;99654.63;;;20.83;100.00
13800;BME280;6971;50.028;9.258;2023-09-07T17:37:38;99654.91;;;20.60;100.00
13800;BME280;6971;50.028;9.258;2023-09-07T17:42:40;99658.88;;;20.46;100.00
13800;BME280;6971;50.028;9.258;2023-09-07T17:47:41;99658.31;;;20.13;100.00
13800;BME280;6971;50.028;9.258;2023-09-07T17:52:41;99664.50;;;20.04;100.00
13800;BME280;6971;50.028;9.258;2023-09-07T17:57:42;99670.88;;;19.72;100.00
13800;BME280;6971;50.028;9.258;2023-09-07T18:02:42;99666.94;;;19.35;100.00
13800;BME280;6971;50.028;9.258;2023-09-07T18:07:42;99671.78;;;19.20;100.00
13800;BME280;6971;50.028;9.258;2023-09-07T18:12:43;99676.59;;;19.04;100.00
13800;BME280;6971;50.028;9.258;2023-09-07T18:17:43;99674.41;;;18.88;100.00
13800;BME280;6971;50.028;9.258;2023-09-07T18:22:44;99680.66;;;18.77;100.00
13800;BME280;6971;50.028;9.258;2023-09-07T18:27:44;99692.72;;;18.39;100.00
13800;BME280;6971;50.028;9.258;2023-09-07T18:32:45;99691.34;;;18.23;100.00
13800;BME280;6971;50.028;9.258;2023-09-07T18:37:45;99704.84;;;18.10;100.00
13800;BME280;6971;50.028;9.258;2023-09-07T18:42:45;99698.78;;;17.85;100.00
13800;BME280;6971;50.028;9.258;2023-09-07T18:47:46;99695.53;;;17.59;100.00
13800;BME280;6971;50.028;9.258;2023-09-07T18:52:46;99692.50;;;17.41;100.00
13800;BME280;6971;50.028;9.258;2023-09-07T18:57:48;99697.59;;;17.32;100.00
13800;BME280;6971;50.028;9.258;2023-09-07T19:02:48;99699.41;;;17.20;100.00
13800;BME280;6971;50.028;9.258;2023-09-07T19:07:49;99688.06;;;16.94;100.00
13800;BME280;6971;50.028;9.258;2023-09-07T19:12:49;99687.56;;;16.77;100.00
13800;BME280;6971;50.028;9.258;2023-09-07T19:17:51;99686.31;;;16.70;100.00
13800;BME280;6971;50.028;9.258;2023-09-07T19:22:51;99686.31;;;16.70;100.00
13800;BME280;6971;50.028;9.258;2023-09-07T19:27:51;99685.81;;;16.65;100.00
13800;BME280;6971;50.028;9.258;2023-09-07T19:32:52;99689.00;;;16.46;100.00
13800;BME280;6971;50.028;9.258;2023-09-07T19:37:52;99694.16;;;16.36;100.00
13800;BME280;6971;50.028;9.258;2023-09-07T19:42:53;99700.56;;;16.33;100.00
13800;BME280;6971;50.028;9.258;2023-09-07T19:47:54;99698.69;;;16.22;100.00
13800;BME280;6971;50.028;9.258;2023-09-07T19:52:54;99701.16;;;16.12;100.00
13800;BME280;6971;50.028;9.258;2023-09-07T19:57:55;99706.22;;;15.91;100.00
13800;BME280;6971;50.028;9.258;2023-09-07T20:02:55;99700.28;;;15.74;100.00
13800;BME280;6971;50.028;9.258;2023-09-07T20:07:57;99697.38;;;15.53;100.00
13800;BME280;6971;50.028;9.258;2023-09-07T20:12:57;99709.25;;;15.47;100.00
13800;BME280;6971;50.028;9.258;2023-09-07T20:17:58;99706.94;;;15.43;100.00
13800;BME280;6971;50.028;9.258;2023-09-07T20:22:58;99708.84;;;15.40;100.00
13800;BME280;6971;50.028;9.258;2023-09-07T20:28:00;99702.59;;;15.29;100.00
13800;BME280;6971;50.028;9.258;2023-09-07T20:33:00;99701.13;;;15.11;100.00
13800;BME280;6971;50.028;9.258;2023-09-07T20:38:01;99698.66;;;15.08;100.00
13800;BME280;6971;50.028;9.258;2023-09-07T20:43:03;99702.38;;;15.06;100.00
13800;BME280;6971;50.028;9.258;2023-09-07T20:48:06;99699.91;;;15.03;100.00
13800;BME280;6971;50.028;9.258;2023-09-07T20:53:07;99695.69;;;15.00;100.00
13800;BME280;6971;50.028;9.258;2023-09-07T20:58:08;99695.25;;;15.06;100.00
13800;BME280;6971;50.028;9.258;2023-09-07T21:03:09;99693.25;;;15.10;100.00
13800;BME280;6971;50.028;9.258;2023-09-07T21:08:09;99699.28;;;15.12;100.00
13800;BME280;6971;50.028;9.258;2023-09-07T21:13:10;99698.13;;;15.03;100.00
13800;BME280;6971;50.028;9.258;2023-09-07T21:18:10;99703.88;;;15.10;100.00
13800;BME280;6971;50.028;9.258;2023-09-07T21:23:10;99713.72;;;15.08;100.00
13800;BME280;6971;50.028;9.258;2023-09-07T21:28:11;99706.81;;;15.05;100.00
13800;BME280;6971;50.028;9.258;2023-09-07T21:33:12;99706.09;;;15.03;100.00
13800;BME280;6971;50.028;9.258;2023-09-07T21:38:12;99711.59;;;15.00;100.00
13800;BME280;6971;50.028;9.258;2023-09-07T21:43:12;99703.97;;;14.95;100.00
13800;BME280;6971;50.028;9.258;2023-09-07T21:48:13;99703.75;;;14.98;100.00
13800;BME280;6971;50.028;9.258;2023-09-07T21:53:14;99700.22;;;14.85;100.00
13800;BME280;6971;50.028;9.258;2023-09-07T21:58:14;99711.03;;;14.82;100.00
13800;BME280;6971;50.028;9.258;2023-09-07T22:03:14;99706.91;;;14.78;100.00
13800;BME280;6971;50.028;9.258;2023-09-07T22:08:15;99708.38;;;14.82;100.00
13800;BME280;6971;50.028;9.258;2023-09-07T22:13:17;99707.91;;;14.75;100.00
13800;BME280;6971;50.028;9.258;2023-09-07T22:18:17;99707.69;;;14.65;100.00
13800;BME280;6971;50.028;9.258;2023-09-07T22:23:17;99711.34;;;14.49;100.00
13800;BME280;6971;50.028;9.258;2023-09-07T22:28:18;99711.91;;;14.55;100.00
13800;BME280;6971;50.028;9.258;2023-09-07T22:33:18;99713.06;;;14.51;100.00
13800;BME280;6971;50.028;9.258;2023-09-07T22:38:18;99711.97;;;14.40;100.00
13800;BME280;6971;50.028;9.258;2023-09-07T22:43:19;99707.44;;;14.42;100.00
13800;BME280;6971;50.028;9.258;2023-09-07T22:48:19;99709.81;;;14.32;100.00
13800;BME280;6971;50.028;9.258;2023-09-07T22:53:19;99700.72;;;14.36;100.00
13800;BME280;6971;50.028;9.258;2023-09-07T22:58:24;99703.66;;;14.32;100.00
13800;BME280;6971;50.028;9.258;2023-09-07T23:03:25;99703.13;;;14.27;100.00
13800;BME280;6971;50.028;9.258;2023-09-07T23:08:25;99695.25;;;14.25;100.00
13800;BME280;6971;50.028;9.258;2023-09-07T23:13:31;99701.22;;;14.29;100.00
13800;BME280;6971;50.028;9.258;2023-09-07T23:18:35;99697.28;;;14.21;100.00
13800;BME280;6971;50.028;9.258;2023-09-07T23:23:35;99691.63;;;14.13;100.00
13800;BME280;6971;50.028;9.258;2023-09-07T23:28:37;99682.69;;;14.14;100.00
13800;BME280;6971;50.028;9.258;2023-09-07T23:33:37;99694.06;;;14.16;100.00
13800;BME280;6971;50.028;9.258;2023-09-07T23:38:38;99693.84;;;14.19;100.00
13800;BME280;6971;50.028;9.258;2023-09-07T23:43:39;99699.47;;;14.15;100.00
13800;BME280;6971;50.028;9.258;2023-09-07T23:48:40;99693.03;;;14.19;100.00
13800;BME280;6971;50.028;9.258;2023-09-07T23:53:40;99690.28;;;14.06;100.00
13800;BME280;6971;50.028;9.258;2023-09-07T23:58:41;99692.75;;;14.09;100.00
